グアム の空港の天気 - METARとTAF

グアム国際空港 ( PGUM / GUM ) - グアム ハガニア
飛行場実況気象(Metar)
観測時間01/22 03:11 ChST (01/21 17:11 UTC)
風向・風速北東 4m/s
視程10km以上
天気現象
少しの雲 雲底高度 610m
全天の8割程度の雲 雲底高度 940m
全天を覆う雲 雲底高度 1220m
気温25.6℃
湿度100%
気圧1011hPa
METARPGUM 211711Z 05008KT 9SM FEW020 BKN031 OVC040 26/26 A2986 RMK AO2 RAE1658 P0000 T02560256 /
過去の天気等 Google飛行場航空写真 Wunderground天気予報

過去48時間のMETAR

飛行場予報(TAF)
発表時間: 1/22 03:27 ChST (1/21 17:27 UTC)
予報対象時間: 22日4時 ChST ~ 23日10時 ChST
風向・風速東北東 5m/s
視程10km以上
天気現象周辺でしゅう雨
全天の4割程度の雲 雲底高度 610m
全天の4割程度の雲 雲底高度 910m
全天の8割程度の雲 雲底高度 1830m
22日4時 ChST ~ 22日8時 ChST に一時的に
視程8050m
天気現象弱いしゅう雨
全天の4割程度の雲 雲底高度 550m
全天の8割程度の雲 雲底高度 910m
22日13時 ChST から
風向・風速東 8m/s 瞬間風速 13m/s
視程10km以上
全天の4割程度の雲 雲底高度 760m
全天の8割程度の雲 雲底高度 1520m
PGUM 211727Z 2118/2224 06010KT P6SM VCSH SCT020 SCT030 BKN060
TEMPO 2118/2122 5SM -SHRA SCT018 BKN030
FM220300 08016G26KT P6SM SCT025 BKN050